Time;durP1;ratioP1;P1;durP2;ratioP2;P2;SDS_P1;SDS_P2;PMS_P1;PMS_P2;Temp;Humidity;BMP_temperature;BMP_pressure;BME280_temperature;BME280_humidity;BME280_pressure;Samples;Min_cycle;Max_cycle;Signal;HPM_P1;HPM_P2
2022/10/09 00:01:22;;;;;;;24.98;11.88;;;;;;;10.51;82.18;99517.62;1664506;86;20999;-76
2022/10/09 00:03:52;;;;;;;27.90;11.43;;;;;;;10.47;81.71;99513.37;1626217;87;21514;-77
2022/10/09 00:06:24;;;;;;;21.55;10.90;;;;;;;10.45;82.59;99515.59;1667308;85;21070;-76
2022/10/09 00:08:52;;;;;;;24.57;10.68;;;;;;;10.44;81.99;99516.45;1666133;86;21073;-77
2022/10/09 00:11:24;;;;;;;19.95;10.95;;;;;;;10.40;84.11;99513.50;1673056;86;20967;-75
2022/10/09 00:13:54;;;;;;;27.77;10.85;;;;;;;10.40;82.28;99512.20;1671437;85;21566;-75
2022/10/09 00:16:24;;;;;;;23.73;11.48;;;;;;;10.37;82.00;99505.33;1662158;86;21541;-82
2022/10/09 00:18:52;;;;;;;22.13;11.40;;;;;;;10.29;82.52;99505.87;1671749;86;21546;-79
2022/10/09 00:21:26;;;;;;;20.20;10.32;;;;;;;10.27;82.62;99514.14;1669768;86;21451;-78
2022/10/09 00:23:58;;;;;;;24.52;11.60;;;;;;;10.27;84.08;99503.30;1665216;86;21547;-76
2022/10/09 00:26:26;;;;;;;21.48;11.50;;;;;;;10.28;84.30;99508.89;1667416;86;21054;-82
2022/10/09 00:28:55;;;;;;;21.10;12.07;;;;;;;10.30;85.46;99507.61;1665836;85;21026;-78
2022/10/09 00:31:23;;;;;;;23.73;12.28;;;;;;;10.29;83.34;99511.92;1664285;86;21006;-80
2022/10/09 00:33:51;;;;;;;22.42;11.63;;;;;;;10.27;84.41;99507.64;1671262;86;21089;-79
2022/10/09 00:36:23;;;;;;;28.73;11.57;;;;;;;10.30;84.72;99515.41;1667498;86;21541;-78
2022/10/09 00:38:53;;;;;;;32.23;14.25;;;;;;;10.30;84.53;99508.91;1668919;86;21359;-79
2022/10/09 00:41:29;;;;;;;23.70;12.05;;;;;;;10.28;84.79;99504.99;1662881;86;20947;-77
2022/10/09 00:44:05;;;;;;;24.85;12.40;;;;;;;10.28;85.08;99511.94;1673947;86;21049;-81
2022/10/09 00:46:45;;;;;;;23.90;11.78;;;;;;;10.30;85.27;99508.45;1663251;86;21010;-75
2022/10/09 00:49:29;;;;;;;19.07;10.25;;;;;;;10.33;85.49;99498.02;1668659;86;21495;-78
2022/10/09 00:52:01;;;;;;;19.25;10.13;;;;;;;10.35;85.17;99502.75;1622795;87;20983;-78
2022/10/09 00:54:33;;;;;;;17.45;9.18;;;;;;;10.35;84.51;99507.09;1671449;85;21003;-78
2022/10/09 00:57:00;;;;;;;19.02;10.55;;;;;;;10.30;84.20;99495.91;1663881;86;20997;-82
2022/10/09 00:59:29;;;;;;;19.45;9.38;;;;;;;10.27;84.04;99489.00;1670021;86;21101;-78
2022/10/09 01:01:57;;;;;;;24.47;10.53;;;;;;;10.25;84.34;99495.12;1672718;85;21029;-80
2022/10/09 01:04:24;;;;;;;18.98;9.78;;;;;;;10.25;84.19;99497.72;1679598;85;21044;-80
2022/10/09 01:07:36;;;;;;;16.93;9.58;;;;;;;10.19;83.26;99489.58;1680037;84;21632;-78
2022/10/09 01:10:32;;;;;;;18.65;9.83;;;;;;;10.11;83.39;99492.30;1679938;85;21017;-78
2022/10/09 01:13:21;;;;;;;19.55;10.03;;;;;;;10.09;83.48;99500.56;1678899;85;21057;-78
2022/10/09 01:16:10;;;;;;;20.35;9.48;;;;;;;10.00;83.11;99494.21;1680300;84;21026;-79
2022/10/09 01:18:52;;;;;;;17.52;10.00;;;;;;;9.98;83.82;99497.28;1662694;86;21470;-81
2022/10/09 01:21:43;;;;;;;20.57;10.15;;;;;;;9.97;84.64;99496.88;1664609;86;21521;-80
2022/10/09 01:24:18;;;;;;;19.40;10.18;;;;;;;9.94;85.22;99491.27;1661332;86;20990;-79
2022/10/09 01:27:21;;;;;;;18.32;9.93;;;;;;;9.93;85.78;99488.27;1677213;84;21030;-78
2022/10/09 01:30:06;;;;;;;18.65;11.20;;;;;;;9.93;85.36;99492.17;1683503;85;21548;-79
2022/10/09 01:32:42;;;;;;;23.27;11.43;;;;;;;9.90;85.12;99504.34;1650765;86;21014;-77
2022/10/09 01:35:11;;;;;;;26.27;11.40;;;;;;;9.86;85.63;99507.42;1666455;85;21578;-80
2022/10/09 01:37:42;;;;;;;19.85;10.63;;;;;;;9.80;85.35;99509.27;1681135;85;21077;-78
2022/10/09 01:40:12;;;;;;;21.10;10.75;;;;;;;9.77;85.81;99508.88;1675055;85;21029;-77
2022/10/09 01:42:40;;;;;;;26.45;10.40;;;;;;;9.74;85.93;99504.56;1668996;86;21020;-77
2022/10/09 01:45:09;;;;;;;22.70;11.12;;;;;;;9.74;86.03;99503.27;1661745;86;21006;-76
2022/10/09 01:47:37;;;;;;;18.92;9.88;;;;;;;9.69;85.60;99508.98;1686963;85;21014;-76
2022/10/09 01:50:27;;;;;;;19.57;9.98;;;;;;;9.62;85.38;99507.35;1660658;86;21022;-77
2022/10/09 01:53:00;;;;;;;25.48;10.55;;;;;;;9.58;85.26;99506.98;1667256;86;21029;-78
2022/10/09 01:55:57;;;;;;;24.40;10.00;;;;;;;9.57;86.20;99501.39;1658843;86;21505;-77
2022/10/09 01:58:33;;;;;;;18.67;9.98;;;;;;;9.55;86.07;99505.74;1664518;86;21031;-79
2022/10/09 02:01:15;;;;;;;23.30;11.70;;;;;;;9.58;86.45;99497.89;1659977;86;20986;-79
2022/10/09 02:03:47;;;;;;;23.35;10.90;;;;;;;9.59;87.37;99501.34;1654644;86;21046;-76
2022/10/09 02:06:18;;;;;;;20.07;10.70;;;;;;;9.56;85.67;99502.25;1659182;84;21057;-77
2022/10/09 02:08:49;;;;;;;20.92;10.93;;;;;;;9.47;85.51;99510.16;1666034;85;21029;-78
2022/10/09 02:11:17;;;;;;;18.15;9.93;;;;;;;9.40;87.57;99510.69;1658593;86;20994;-79
2022/10/09 02:13:47;;;;;;;23.02;10.35;;;;;;;9.38;87.39;99509.86;1665702;85;21022;-79
2022/10/09 02:16:41;;;;;;;18.48;9.73;;;;;;;9.35;86.59;99509.47;1664569;85;21030;-77
2022/10/09 02:19:38;;;;;;;19.07;10.25;;;;;;;9.33;85.82;99512.52;1639334;86;21071;-79
2022/10/09 02:22:25;;;;;;;21.12;10.70;;;;;;;9.30;85.98;99514.30;1675352;85;21006;-77
2022/10/09 02:24:54;;;;;;;18.48;9.60;;;;;;;9.33;87.37;99519.01;1642817;86;21019;-78
2022/10/09 02:27:23;;;;;;;20.85;10.82;;;;;;;9.30;85.39;99529.86;1645439;86;21044;-77
2022/10/09 02:29:52;;;;;;;16.80;9.63;;;;;;;9.23;85.42;99530.39;1652635;87;21017;-78
2022/10/09 02:32:21;;;;;;;16.90;10.43;;;;;;;9.21;85.89;99524.36;1647383;86;21068;-80
2022/10/09 02:34:49;;;;;;;16.77;9.55;;;;;;;9.15;85.87;99524.41;1678991;85;21045;-78
2022/10/09 02:37:18;;;;;;;18.75;9.93;;;;;;;9.08;86.55;99526.69;1661273;86;21553;-77
2022/10/09 02:39:45;;;;;;;17.45;9.58;;;;;;;9.06;86.78;99525.84;1681453;85;21065;-79
2022/10/09 02:42:13;;;;;;;24.18;10.53;;;;;;;9.07;87.60;99527.54;1661728;86;21005;-78
2022/10/09 02:44:41;;;;;;;19.95;10.28;;;;;;;9.10;88.14;99536.59;1664972;86;21006;-78
2022/10/09 02:47:09;;;;;;;21.12;11.53;;;;;;;9.11;88.12;99535.70;1663263;86;20955;-79
2022/10/09 02:49:37;;;;;;;24.55;9.08;;;;;;;9.16;88.04;99537.81;1680306;85;21498;-77
2022/10/09 02:52:05;;;;;;;17.20;8.93;;;;;;;9.16;86.83;99530.03;1664004;86;21049;-79
2022/10/09 02:54:32;;;;;;;18.27;8.30;;;;;;;9.15;86.99;99534.38;1657078;86;21007;-78
2022/10/09 02:57:00;;;;;;;16.23;9.20;;;;;;;9.15;87.47;99528.30;1684572;85;21045;-78
2022/10/09 02:59:28;;;;;;;16.48;9.33;;;;;;;9.17;87.67;99526.55;1656205;86;21009;-77
2022/10/09 03:01:56;;;;;;;17.85;10.55;;;;;;;9.21;87.64;99526.96;1662461;86;21042;-78
2022/10/09 03:04:24;;;;;;;18.02;11.40;;;;;;;9.24;87.63;99526.91;1644456;87;21031;-78
2022/10/09 03:06:51;;;;;;;19.52;10.05;;;;;;;9.24;87.22;99532.09;1651039;85;21078;-77
2022/10/09 03:09:19;;;;;;;19.95;10.23;;;;;;;9.24;87.32;99531.24;1644153;86;21094;-78
2022/10/09 03:11:47;;;;;;;20.88;10.80;;;;;;;9.24;87.11;99537.73;1650541;87;21577;-77
2022/10/09 03:14:15;;;;;;;21.25;10.68;;;;;;;9.25;86.75;99544.20;1644201;87;21627;-78
2022/10/09 03:16:43;;;;;;;18.95;9.88;;;;;;;9.22;86.37;99545.97;1652285;87;20997;-78
2022/10/09 03:19:11;;;;;;;17.20;10.18;;;;;;;9.19;85.63;99545.99;1647432;87;21026;-78
2022/10/09 03:21:38;;;;;;;20.88;10.32;;;;;;;9.16;86.36;99546.89;1651488;87;21011;-78
2022/10/09 03:24:06;;;;;;;24.77;11.35;;;;;;;9.15;86.71;99543.87;1652196;86;21026;-77
2022/10/09 03:26:34;;;;;;;23.42;11.57;;;;;;;9.17;87.24;99544.70;1668121;86;21045;-78
2022/10/09 03:29:02;;;;;;;19.87;10.28;;;;;;;9.13;87.07;99545.63;1653764;86;21022;-78
2022/10/09 03:31:30;;;;;;;21.68;9.60;;;;;;;9.14;87.51;99549.50;1666622;86;21494;-78
2022/10/09 03:33:57;;;;;;;19.85;10.30;;;;;;;9.19;88.05;99547.29;1686734;85;20997;-79
2022/10/09 03:36:25;;;;;;;21.45;9.23;;;;;;;9.23;88.03;99548.97;1667521;84;20969;-78
2022/10/09 03:38:53;;;;;;;20.65;9.55;;;;;;;9.22;87.84;99541.63;1622365;88;21041;-78
2022/10/09 03:41:21;;;;;;;18.73;10.25;;;;;;;9.22;87.82;99550.71;1653518;86;21066;-77
2022/10/09 03:43:48;;;;;;;16.80;8.83;;;;;;;9.22;88.03;99542.92;1628464;87;21032;-78
2022/10/09 03:46:16;;;;;;;19.55;9.45;;;;;;;9.25;87.71;99547.21;1637267;86;21058;-78
2022/10/09 03:48:45;;;;;;;17.82;8.78;;;;;;;9.12;87.54;99542.63;1676607;85;21052;-77
2022/10/09 03:51:12;;;;;;;16.35;8.88;;;;;;;9.06;86.12;99536.22;1678758;85;20982;-77
2022/10/09 03:53:40;;;;;;;18.77;8.60;;;;;;;8.96;86.93;99533.72;1624755;87;21041;-76
2022/10/09 03:56:08;;;;;;;14.95;8.15;;;;;;;8.91;86.07;99534.64;1656809;86;21030;-80
2022/10/09 03:58:35;;;;;;;16.77;9.35;;;;;;;8.83;86.69;99533.42;1664936;85;20977;-81
2022/10/09 04:01:03;;;;;;;18.82;8.90;;;;;;;8.79;86.78;99532.19;1684126;84;21595;-80
2022/10/09 04:03:31;;;;;;;21.77;9.50;;;;;;;8.77;86.70;99539.98;1605665;87;21067;-78
2022/10/09 04:05:59;;;;;;;20.02;9.93;;;;;;;8.74;87.13;99549.10;1652857;86;20982;-79
2022/10/09 04:08:26;;;;;;;21.87;10.25;;;;;;;8.66;88.02;99549.62;1632232;88;20998;-79
2022/10/09 04:10:59;;;;;;;20.00;10.20;;;;;;;8.64;89.18;99548.78;1662490;86;21587;-80
2022/10/09 04:13:27;;;;;;;20.25;9.98;;;;;;;8.69;89.01;99545.69;1633917;87;21037;-77
2022/10/09 04:15:55;;;;;;;15.43;9.20;;;;;;;8.74;89.66;99550.39;1673044;85;20974;-78
2022/10/09 04:18:24;;;;;;;21.95;10.30;;;;;;;8.78;88.10;99553.38;1658026;85;21009;-79
2022/10/09 04:20:54;;;;;;;14.75;8.25;;;;;;;8.78;87.36;99548.19;1665980;85;21017;-79
2022/10/09 04:23:25;;;;;;;16.50;9.15;;;;;;;8.79;88.10;99551.63;1650988;85;21445;-80
2022/10/09 04:25:58;;;;;;;14.28;8.18;;;;;;;8.79;87.88;99550.34;1658785;85;21013;-78
2022/10/09 04:28:27;;;;;;;18.00;8.75;;;;;;;8.78;87.24;99558.56;1651432;86;20982;-77
2022/10/09 04:30:58;;;;;;;17.55;8.55;;;;;;;8.81;89.38;99564.99;1660135;86;21059;-78
2022/10/09 04:33:26;;;;;;;17.37;8.50;;;;;;;8.86;88.61;99548.97;1628852;87;21030;-81
2022/10/09 04:35:56;;;;;;;17.73;8.40;;;;;;;8.90;89.98;99548.05;1635883;87;21002;-79
2022/10/09 04:38:23;;;;;;;16.37;9.23;;;;;;;8.99;90.42;99547.52;1628257;87;21010;-79
2022/10/09 04:41:00;;;;;;;14.70;7.62;;;;;;;9.00;91.66;99548.81;1658304;86;21036;-79
2022/10/09 04:43:28;;;;;;;16.52;8.75;;;;;;;9.04;91.46;99553.09;1629939;87;21065;-79
2022/10/09 04:45:56;;;;;;;18.17;9.10;;;;;;;9.03;89.77;99563.05;1633944;87;21029;-78
2022/10/09 04:48:24;;;;;;;14.95;7.85;;;;;;;9.07;90.26;99558.25;1632791;87;21013;-78
2022/10/09 04:50:52;;;;;;;15.00;7.85;;;;;;;9.11;90.79;99560.34;1653490;86;21119;-78
2022/10/09 04:53:20;;;;;;;13.43;7.53;;;;;;;9.15;90.58;99564.62;1632790;88;21091;-77
2022/10/09 04:55:48;;;;;;;14.15;7.62;;;;;;;9.20;91.44;99568.03;1630266;87;21030;-78
2022/10/09 04:58:16;;;;;;;14.63;7.45;;;;;;;9.21;91.35;99559.39;1633560;87;21107;-81
2022/10/09 05:00:45;;;;;;;15.28;7.58;;;;;;;9.23;90.58;99562.82;1667879;86;20972;-79
2022/10/09 05:03:13;;;;;;;18.67;8.05;;;;;;;9.24;89.89;99568.86;1624114;87;21115;-78
2022/10/09 05:05:40;;;;;;;17.73;9.45;;;;;;;9.27;90.86;99573.58;1629611;86;21502;-78
2022/10/09 05:08:08;;;;;;;18.62;9.43;;;;;;;9.33;91.55;99573.50;1669465;86;21078;-78
2022/10/09 05:10:36;;;;;;;17.40;8.83;;;;;;;9.44;91.07;99579.84;1676456;85;21056;-78
2022/10/09 05:13:04;;;;;;;15.38;7.75;;;;;;;9.45;90.43;99585.47;1683285;85;20982;-79
2022/10/09 05:15:35;;;;;;;14.80;8.40;;;;;;;9.49;90.69;99587.14;1677664;85;21069;-77
2022/10/09 05:18:03;;;;;;;12.88;7.45;;;;;;;9.51;89.91;99584.09;1686746;85;20986;-78
2022/10/09 05:20:31;;;;;;;14.55;7.55;;;;;;;9.50;89.35;99589.29;1685966;85;21025;-79
2022/10/09 05:22:59;;;;;;;17.85;8.00;;;;;;;9.49;89.75;99594.05;1672424;85;20986;-81
2022/10/09 05:25:26;;;;;;;16.65;8.05;;;;;;;9.49;90.04;99596.23;1680224;85;21026;-77
2022/10/09 05:27:54;;;;;;;16.35;8.28;;;;;;;9.55;90.80;99596.59;1648140;85;20977;-75
2022/10/09 05:30:22;;;;;;;17.00;8.45;;;;;;;9.59;90.86;99596.09;1665883;86;21491;-76
2022/10/09 05:32:50;;;;;;;16.52;8.68;;;;;;;9.68;90.72;99603.31;1654749;85;20985;-77
2022/10/09 05:35:17;;;;;;;15.35;8.93;;;;;;;9.76;90.51;99608.41;1617876;88;21082;-76
2022/10/09 05:37:45;;;;;;;16.93;7.92;;;;;;;9.83;90.67;99603.98;1631446;87;21045;-75
2022/10/09 05:40:13;;;;;;;13.50;7.90;;;;;;;9.91;90.69;99603.47;1667019;86;21522;-76
2022/10/09 05:42:41;;;;;;;12.13;7.05;;;;;;;10.00;90.18;99609.80;1677793;85;21041;-78
2022/10/09 05:45:10;;;;;;;14.65;6.95;;;;;;;10.06;89.84;99610.16;1673684;85;21029;-76
2022/10/09 05:47:38;;;;;;;14.30;8.03;;;;;;;10.07;88.91;99612.73;1661703;85;20981;-75
2022/10/09 05:50:06;;;;;;;15.80;8.23;;;;;;;10.10;89.64;99607.93;1674458;85;21541;-75
2022/10/09 05:52:34;;;;;;;13.28;7.00;;;;;;;10.20;89.49;99615.16;1668046;85;20952;-75
2022/10/09 05:55:02;;;;;;;12.82;7.37;;;;;;;10.23;88.78;99624.22;1676207;85;21033;-79
2022/10/09 05:57:30;;;;;;;14.05;7.80;;;;;;;10.22;88.76;99625.92;1662391;85;20988;-75
2022/10/09 05:59:57;;;;;;;13.78;7.53;;;;;;;10.28;88.78;99631.48;1614035;88;21039;-80
2022/10/09 06:02:25;;;;;;;15.75;7.83;;;;;;;10.32;88.16;99631.43;1625438;87;21491;-78
2022/10/09 06:04:53;;;;;;;19.52;7.20;;;;;;;10.27;88.37;99643.63;1621483;88;21037;-76
2022/10/09 06:07:21;;;;;;;16.62;7.55;;;;;;;10.32;88.34;99640.98;1630719;86;21053;-77
2022/10/09 06:09:48;;;;;;;15.75;8.05;;;;;;;10.35;87.67;99648.29;1661320;85;21068;-76
2022/10/09 06:12:15;;;;;;;14.63;7.58;;;;;;;10.30;87.67;99649.23;1654997;85;21025;-77
2022/10/09 06:14:43;;;;;;;13.95;7.80;;;;;;;10.29;87.99;99654.00;1632652;88;21077;-76
2022/10/09 06:17:11;;;;;;;18.25;8.88;;;;;;;10.32;87.72;99665.66;1631722;87;21029;-78
2022/10/09 06:19:39;;;;;;;17.23;8.08;;;;;;;10.33;88.43;99663.05;1632153;88;21023;-78
2022/10/09 06:22:06;;;;;;;15.75;8.33;;;;;;;10.38;88.28;99652.58;1629476;88;20985;-78
2022/10/09 06:24:34;;;;;;;20.35;9.25;;;;;;;10.50;88.55;99660.63;1636224;87;21043;-77
2022/10/09 06:27:01;;;;;;;16.65;8.90;;;;;;;10.60;88.03;99660.05;1672898;85;21080;-80
2022/10/09 06:29:30;;;;;;;19.15;9.18;;;;;;;10.68;87.95;99655.16;1667205;85;21041;-79
2022/10/09 06:31:57;;;;;;;16.15;8.23;;;;;;;10.76;87.95;99665.40;1631892;88;21661;-76
2022/10/09 06:34:25;;;;;;;16.93;8.78;;;;;;;10.84;87.50;99666.16;1631523;88;20975;-75
2022/10/09 06:36:53;;;;;;;19.30;9.50;;;;;;;10.94;87.86;99663.81;1627971;88;21003;-76
2022/10/09 06:39:21;;;;;;;17.65;8.93;;;;;;;11.12;88.35;99667.83;1666137;85;21013;-74
2022/10/09 06:41:49;;;;;;;18.82;9.05;;;;;;;11.30;87.81;99677.03;1634680;88;21067;-77
2022/10/09 06:44:33;;;;;;;17.00;8.33;;;;;;;11.45;87.44;99671.12;1615091;88;21054;-77
2022/10/09 06:47:01;;;;;;;20.27;9.50;;;;;;;11.65;87.07;99670.27;1650397;85;21033;-77
2022/10/09 06:49:29;;;;;;;20.10;9.33;;;;;;;11.84;86.42;99675.13;1630948;86;21034;-78
2022/10/09 06:51:56;;;;;;;19.70;9.00;;;;;;;11.98;86.42;99683.53;1653855;85;21554;-77
2022/10/09 06:54:24;;;;;;;17.42;9.03;;;;;;;12.07;86.08;99696.80;1631799;86;21002;-74
2022/10/09 06:56:54;;;;;;;17.25;8.55;;;;;;;12.11;85.27;99695.38;1628485;88;21007;-75
2022/10/09 06:59:22;;;;;;;17.77;9.35;;;;;;;12.16;84.99;99699.20;1675981;85;21073;-77
2022/10/09 07:01:49;;;;;;;18.42;9.48;;;;;;;12.26;84.88;99698.11;1660863;85;21021;-74
2022/10/09 07:04:17;;;;;;;15.90;9.53;;;;;;;12.40;85.06;99700.41;1623568;87;21006;-75
2022/10/09 07:06:46;;;;;;;13.98;8.35;;;;;;;12.44;84.78;99702.50;1615120;88;21579;-75
2022/10/09 07:09:15;;;;;;;15.25;8.43;;;;;;;12.53;84.55;99711.40;1621484;88;21967;-75
2022/10/09 07:11:49;;;;;;;16.90;8.90;;;;;;;12.49;84.24;99696.30;1618215;88;21055;-77
2022/10/09 07:14:17;;;;;;;17.32;9.03;;;;;;;12.60;84.51;99700.40;1658612;86;21042;-76
2022/10/09 07:16:47;;;;;;;16.20;8.70;;;;;;;12.66;84.01;99697.64;1656180;85;21030;-75
2022/10/09 07:19:16;;;;;;;13.78;8.40;;;;;;;12.77;84.05;99693.00;1618924;88;21854;-76
2022/10/09 07:21:46;;;;;;;13.88;8.03;;;;;;;12.85;83.62;99700.64;1615511;88;21558;-75
2022/10/09 07:24:16;;;;;;;14.05;8.73;;;;;;;12.91;83.64;99692.23;1617399;88;21009;-75
2022/10/09 07:26:46;;;;;;;17.52;8.83;;;;;;;12.99;83.12;99696.38;1616569;88;21019;-75
2022/10/09 07:29:16;;;;;;;18.10;8.68;;;;;;;13.09;83.20;99690.91;1619554;88;21062;-75
2022/10/09 07:31:44;;;;;;;18.50;8.68;;;;;;;13.03;82.76;99688.87;1618743;88;21516;-75
2022/10/09 07:34:12;;;;;;;16.93;8.20;;;;;;;12.98;82.29;99687.70;1619882;88;21046;-75
2022/10/09 07:36:39;;;;;;;17.90;9.70;;;;;;;13.05;82.71;99679.26;1618512;88;21025;-74
2022/10/09 07:39:07;;;;;;;16.93;8.90;;;;;;;13.03;82.56;99681.93;1654710;86;21006;-75
2022/10/09 07:41:35;;;;;;;13.95;8.08;;;;;;;13.04;82.54;99686.70;1672722;86;20994;-76
2022/10/09 07:44:02;;;;;;;17.23;9.63;;;;;;;13.10;82.51;99674.78;1637059;86;21093;-75
2022/10/09 07:46:30;;;;;;;14.38;8.60;;;;;;;13.06;82.46;99676.61;1672834;86;21030;-76
2022/10/09 07:48:57;;;;;;;15.25;8.90;;;;;;;13.09;82.46;99678.28;1643813;86;21582;-75
2022/10/09 07:51:28;;;;;;;18.80;8.98;;;;;;;13.10;82.60;99676.09;1656597;86;21046;-75
2022/10/09 07:53:56;;;;;;;17.23;9.60;;;;;;;13.20;82.35;99676.25;1643653;86;21069;-75
2022/10/09 07:56:28;;;;;;;16.80;8.53;;;;;;;13.26;82.54;99674.78;1621291;88;21029;-76
2022/10/09 07:58:59;;;;;;;14.95;7.92;;;;;;;13.26;82.21;99667.41;1616507;88;21075;-76
2022/10/09 08:01:29;;;;;;;20.30;8.95;;;;;;;13.35;82.20;99668.93;1622403;88;20970;-75
2022/10/09 08:03:58;;;;;;;16.75;8.98;;;;;;;13.33;82.32;99667.23;1629262;87;21054;-76
2022/10/09 08:06:27;;;;;;;14.07;8.03;;;;;;;13.37;82.44;99667.13;1650945;85;21042;-76
2022/10/09 08:08:57;;;;;;;15.53;8.03;;;;;;;13.40;82.53;99656.61;1643722;87;21014;-77
2022/10/09 08:11:28;;;;;;;16.05;7.47;;;;;;;13.45;82.34;99641.23;1650285;87;21483;-75
2022/10/09 08:13:55;;;;;;;13.22;7.65;;;;;;;13.51;82.03;99654.12;1645901;87;21003;-77
2022/10/09 08:16:26;;;;;;;11.12;6.75;;;;;;;13.56;81.87;99655.28;1666996;86;21049;-77
2022/10/09 08:18:58;;;;;;;11.57;7.10;;;;;;;13.57;81.54;99654.40;1646556;87;21034;-75
2022/10/09 08:21:27;;;;;;;13.60;6.70;;;;;;;13.57;81.66;99652.20;1646962;87;20991;-76
2022/10/09 08:23:57;;;;;;;12.58;7.72;;;;;;;13.62;81.71;99652.49;1667012;86;21038;-76
2022/10/09 08:26:28;;;;;;;12.50;7.12;;;;;;;13.66;81.76;99661.95;1652324;86;21005;-75
2022/10/09 08:29:02;;;;;;;11.50;6.72;;;;;;;13.72;81.49;99668.30;1668065;85;20993;-75
2022/10/09 08:31:31;;;;;;;14.05;6.83;;;;;;;13.70;81.42;99666.64;1664194;86;21023;-76
2022/10/09 08:34:02;;;;;;;16.40;6.50;;;;;;;13.76;81.22;99668.23;1667379;86;21070;-75
2022/10/09 08:36:30;;;;;;;11.90;6.87;;;;;;;13.75;81.45;99665.20;1667994;86;21002;-75
2022/10/09 08:38:58;;;;;;;11.88;6.65;;;;;;;13.84;81.52;99668.86;1666107;86;21573;-75
2022/10/09 08:41:40;;;;;;;9.45;6.30;;;;;;;13.92;81.25;99665.56;1668258;86;21462;-75
2022/10/09 08:44:28;;;;;;;14.40;7.00;;;;;;;14.03;80.79;99669.19;1682918;85;21501;-78
2022/10/09 08:47:04;;;;;;;17.10;6.62;;;;;;;14.13;80.66;99664.08;1668987;85;20937;-75
2022/10/09 08:49:40;;;;;;;14.47;6.33;;;;;;;14.27;80.36;99669.73;1666076;86;21046;-75
2022/10/09 08:52:25;;;;;;;10.85;5.95;;;;;;;14.38;80.19;99658.92;1661686;86;21507;-76
2022/10/09 08:54:58;;;;;;;9.45;5.85;;;;;;;14.53;79.10;99658.90;1655744;86;21031;-75
2022/10/09 08:57:30;;;;;;;15.70;6.53;;;;;;;14.71;79.25;99661.40;1666500;86;21526;-75
2022/10/09 08:59:58;;;;;;;13.40;6.60;;;;;;;14.87;78.98;99663.05;1655514;86;21554;-76
2022/10/09 09:03:17;;;;;;;11.78;7.28;;;;;;;15.01;79.07;99657.34;1662151;86;21010;-75
2022/10/09 09:06:11;;;;;;;16.95;7.22;;;;;;;15.18;79.11;99657.63;1657803;86;21014;-78
2022/10/09 09:08:51;;;;;;;;;;;;;;;15.44;78.77;99657.16;1671510;86;21022;-78
2022/10/09 09:11:42;;;;;;;16.10;7.30;;;;;;;15.60;78.45;99659.61;1664707;85;20400;-77
2022/10/09 09:14:56;;;;;;;10.95;6.62;;;;;;;15.80;77.26;99659.38;1664976;86;21062;-77
2022/10/09 09:17:38;;;;;;;11.20;6.83;;;;;;;15.96;76.43;99660.49;1638112;86;20990;-76
2022/10/09 09:20:47;;;;;;;10.78;6.67;;;;;;;16.13;77.00;99661.60;1668512;86;21022;-77
2022/10/09 09:23:16;;;;;;;11.88;6.12;;;;;;;16.32;76.52;99663.91;1661423;86;21030;-78
2022/10/09 09:25:45;;;;;;;13.80;6.30;;;;;;;16.45;75.31;99665.57;1668577;86;21007;-76
2022/10/09 09:28:21;;;;;;;13.15;7.12;;;;;;;16.55;75.46;99661.66;1660688;86;21006;-75
2022/10/09 09:30:54;;;;;;;12.70;6.72;;;;;;;16.70;74.98;99658.87;1667947;86;21031;-75
2022/10/09 09:33:36;;;;;;;12.50;6.50;;;;;;;16.88;74.34;99662.55;1660145;86;20958;-76
2022/10/09 09:36:14;;;;;;;10.25;6.30;;;;;;;17.07;74.66;99655.59;1658031;85;21028;-75
2022/10/09 09:38:42;;;;;;;13.62;6.87;;;;;;;17.35;74.44;99655.71;1664513;85;20984;-75
2022/10/09 09:41:09;;;;;;;11.22;6.28;;;;;;;17.63;74.59;99647.91;1677144;85;20992;-74
2022/10/09 09:43:37;;;;;;;8.95;5.78;;;;;;;17.87;74.12;99653.86;1670719;85;21480;-75
2022/10/09 09:46:10;;;;;;;10.30;5.45;;;;;;;18.12;73.13;99644.33;1663727;86;21058;-75
2022/10/09 09:48:44;;;;;;;12.80;5.67;;;;;;;18.34;72.94;99638.89;1662792;86;21054;-75
2022/10/09 09:51:30;;;;;;;10.90;5.22;;;;;;;18.60;71.54;99648.17;1665023;86;21075;-76
2022/10/09 09:54:09;;;;;;;10.15;4.80;;;;;;;18.81;72.02;99646.27;1668261;85;20986;-76
2022/10/09 09:56:42;;;;;;;11.53;5.50;;;;;;;19.01;69.68;99639.98;1670192;86;21018;-75
2022/10/09 09:59:32;;;;;;;11.70;5.60;;;;;;;19.18;69.58;99640.45;1666088;86;21008;-76
2022/10/09 10:02:27;;;;;;;11.20;5.70;;;;;;;19.30;69.73;99637.64;1661632;86;21022;-75
2022/10/09 10:05:17;;;;;;;10.75;6.55;;;;;;;19.40;66.26;99644.60;1670651;86;20986;-75
2022/10/09 10:07:48;;;;;;;10.35;5.17;;;;;;;19.47;66.97;99636.73;1655386;85;21045;-74
2022/10/09 10:10:22;;;;;;;13.13;5.65;;;;;;;19.60;64.38;99631.20;1668951;85;21072;-75
2022/10/09 10:12:56;;;;;;;12.43;5.62;;;;;;;19.73;65.37;99632.72;1665397;86;21559;-75
2022/10/09 10:15:28;;;;;;;8.43;5.75;;;;;;;19.84;63.94;99637.44;1660524;85;20994;-76
2022/10/09 10:18:03;;;;;;;9.48;5.42;;;;;;;19.88;64.88;99635.48;1664571;86;21511;-75
2022/10/09 10:20:44;;;;;;;10.75;5.20;;;;;;;19.96;64.39;99635.91;1661379;86;21034;-75
2022/10/09 10:23:50;;;;;;;9.95;5.08;;;;;;;19.99;63.85;99634.41;1663313;86;21005;-77
2022/10/09 10:26:54;;;;;;;12.18;4.90;;;;;;;19.96;63.48;99636.75;1639456;85;20996;-76
2022/10/09 10:29:34;;;;;;;;;;;;;;;20.02;63.52;99645.64;1654790;86;21051;-75
2022/10/09 10:32:34;;;;;;;11.08;4.87;;;;;;;20.15;61.30;99642.32;1662724;86;20120;-75
2022/10/09 10:35:07;;;;;;;10.45;5.00;;;;;;;20.25;62.18;99637.77;1667678;86;21015;-74
2022/10/09 10:37:59;;;;;;;;;;;;;;;20.26;61.52;99634.18;1663978;86;21071;-75
2022/10/09 10:40:36;;;;;;;10.13;5.30;;;;;;;20.30;61.73;99641.47;1658887;86;20149;-74
2022/10/09 10:43:24;;;;;;;11.80;5.20;;;;;;;20.32;61.62;99641.38;1667551;86;21565;-75
2022/10/09 10:46:25;;;;;;;8.53;4.87;;;;;;;20.36;61.79;99638.47;1664298;85;21042;-75
2022/10/09 10:48:53;;;;;;;9.03;4.42;;;;;;;20.35;60.84;99643.39;1668318;86;21010;-75
2022/10/09 10:51:47;;;;;;;9.85;4.37;;;;;;;20.39;61.61;99641.40;1663222;85;21018;-75
2022/10/09 10:54:35;;;;;;;9.90;4.17;;;;;;;20.32;59.12;99642.70;1635969;85;21024;-75
2022/10/09 10:57:32;;;;;;;8.25;3.75;;;;;;;20.23;59.42;99640.97;1677380;85;20979;-75
2022/10/09 11:00:07;;;;;;;7.65;4.35;;;;;;;20.13;58.45;99641.55;1664863;86;21510;-75
2022/10/09 11:03:12;;;;;;;9.05;4.45;;;;;;;20.08;57.38;99642.30;1662821;85;20998;-75
2022/10/09 11:05:54;;;;;;;9.63;4.95;;;;;;;20.05;58.45;99648.13;1659318;86;21019;-75
2022/10/09 11:08:33;;;;;;;10.08;5.87;;;;;;;20.05;58.35;99647.25;1655483;86;21487;-75
2022/10/09 11:11:12;;;;;;;13.72;6.22;;;;;;;19.91;56.59;99648.02;1658718;86;21115;-74
2022/10/09 11:14:19;;;;;;;12.20;6.40;;;;;;;19.82;58.43;99637.98;1663365;86;21422;-75
2022/10/09 11:17:18;;;;;;;11.40;4.80;;;;;;;19.76;58.45;99637.84;1669228;86;20991;-75
2022/10/09 11:20:06;;;;;;;8.38;4.85;;;;;;;19.76;59.01;99625.13;1667024;86;21051;-76
2022/10/09 11:22:51;;;;;;;13.25;5.75;;;;;;;19.70;59.47;99618.36;1652242;86;21562;-75
2022/10/09 11:25:59;;;;;;;11.65;4.62;;;;;;;19.71;59.42;99624.48;1659434;86;21025;-75
2022/10/09 11:28:45;;;;;;;8.88;5.40;;;;;;;19.70;58.61;99631.55;1665560;85;21084;-74
2022/10/09 11:31:39;;;;;;;10.00;4.92;;;;;;;19.75;59.41;99632.64;1667237;86;21007;-75
2022/10/09 11:34:21;;;;;;;11.05;5.00;;;;;;;19.83;58.93;99629.12;1662609;85;21010;-76
2022/10/09 11:36:49;;;;;;;13.22;4.60;;;;;;;19.83;58.24;99635.71;1662696;85;21022;-77
2022/10/09 11:39:29;;;;;;;11.03;4.67;;;;;;;19.80;58.29;99627.51;1675075;85;21022;-75
2022/10/09 11:41:58;;;;;;;11.20;4.75;;;;;;;19.83;58.26;99629.95;1669072;86;21668;-74
2022/10/09 11:44:46;;;;;;;11.30;4.85;;;;;;;19.91;58.42;99634.82;1664411;86;21002;-74
2022/10/09 11:47:40;;;;;;;10.53;5.45;;;;;;;20.01;58.11;99621.50;1668233;86;21905;-75
2022/10/09 11:50:22;;;;;;;8.13;5.12;;;;;;;20.15;57.92;99622.52;1654159;86;21017;-75
2022/10/09 11:53:01;;;;;;;9.70;4.45;;;;;;;20.39;56.91;99625.11;1666507;86;21531;-75
2022/10/09 11:55:32;;;;;;;8.90;5.10;;;;;;;20.60;57.18;99624.84;1660850;86;21789;-75
2022/10/09 11:58:13;;;;;;;10.38;5.30;;;;;;;20.90;57.13;99612.08;1665982;86;21058;-75